Eagle Lake, Eagle Lake Airport (KELA)

NameEagle Lake Airport
CityEagle Lake
CountryUnited States
ICAOKELA
IATAELA
Altitude56 m
CoordinatesGoogle Map
Live Air TrafficLiveATC.net
METARKELA 141055Z AUTO 03009KT 10SM -DZ OVC018 07/06 A3016 RMK AO2 P0002 T00710060
2019-11-14 10:55:00 Wind: North-Northeast (30°) 4.63 m/s - Visibility: 16093.4 m - Weather: Light Drizzle - Temperature: 7 °C - Dew point: 6 °C - Humidity: 93.4% - Pressure: 1021.33 hPa

Sorry, no flights used the airport in this database.